createdAt,value
2018-05-07T00:02:25.254Z,12.40
2018-05-07T00:04:53.565Z,12.50
2018-05-07T00:07:21.081Z,13.10
2018-05-07T00:09:48.989Z,11.60
2018-05-07T00:12:16.888Z,12.60
2018-05-07T00:14:45.159Z,12.60
2018-05-07T00:17:12.651Z,11.70
2018-05-07T00:19:40.928Z,12.70
2018-05-07T00:22:08.863Z,13.10
2018-05-07T00:24:37.166Z,12.60
2018-05-07T00:29:33.891Z,12.90
2018-05-07T00:32:01.389Z,12.00
2018-05-07T00:34:28.887Z,13.30
2018-05-07T00:36:56.396Z,12.90
2018-05-07T00:39:23.895Z,13.20
2018-05-07T00:44:20.238Z,13.00
2018-05-07T00:46:48.495Z,13.10
2018-05-07T00:49:16.005Z,13.80
2018-05-07T00:51:43.500Z,13.10
2018-05-07T00:54:11.003Z,13.80
2018-05-07T00:56:38.502Z,13.10
2018-05-07T00:59:06.777Z,13.30
2018-05-07T01:01:35.022Z,13.30
2018-05-07T01:04:02.515Z,13.50
2018-05-07T01:06:30.772Z,13.30
2018-05-07T01:08:58.667Z,12.80
2018-05-07T01:11:26.176Z,13.80
2018-05-07T01:13:53.678Z,13.10
2018-05-07T01:16:21.963Z,13.30
2018-05-07T01:18:49.450Z,13.70
2018-05-07T01:21:16.966Z,13.20
2018-05-07T01:26:13.363Z,12.20
2018-05-07T01:28:40.857Z,12.90
2018-05-07T01:31:08.352Z,12.70
2018-05-07T01:33:35.859Z,12.50
2018-05-07T01:36:03.345Z,13.90
2018-05-07T01:38:31.619Z,13.00
2018-05-07T01:41:00.615Z,13.00
2018-05-07T01:43:28.897Z,13.00
2018-05-07T01:45:57.152Z,13.00
2018-05-07T01:48:24.643Z,12.70
2018-05-07T01:50:52.921Z,12.90
2018-05-07T01:55:49.285Z,12.70
2018-05-07T01:58:16.779Z,13.40
2018-05-07T02:00:45.044Z,12.80
2018-05-07T02:03:12.536Z,11.70
2018-05-07T02:05:40.036Z,12.50
2018-05-07T02:08:07.556Z,12.50
2018-05-07T02:10:35.806Z,12.70
2018-05-07T02:13:03.318Z,12.90
2018-05-07T02:17:59.653Z,13.00
2018-05-07T02:20:27.905Z,12.60
2018-05-07T02:22:55.784Z,12.30
2018-05-07T02:25:24.051Z,12.50
2018-05-07T02:27:51.536Z,12.80
2018-05-07T02:30:19.799Z,12.40
2018-05-07T02:32:47.684Z,12.20
2018-05-07T02:35:15.581Z,12.70
2018-05-07T02:37:43.070Z,13.20
2018-05-07T02:40:10.572Z,12.30
2018-05-07T02:42:38.068Z,12.10
2018-05-07T02:45:06.345Z,12.50
2018-05-07T02:47:33.863Z,13.40
2018-05-07T02:50:01.358Z,13.50
2018-05-07T02:52:28.873Z,12.80
2018-05-07T02:54:57.148Z,12.40
2018-05-07T02:57:25.432Z,12.40
2018-05-07T02:59:52.939Z,12.40
2018-05-07T03:02:20.431Z,13.00
2018-05-07T03:04:48.707Z,12.30
2018-05-07T03:07:16.976Z,12.30
2018-05-07T03:09:44.474Z,11.90
2018-05-07T03:12:12.088Z,13.00
2018-05-07T03:14:39.889Z,14.20
2018-05-07T03:19:36.221Z,11.90
2018-05-07T03:22:04.124Z,12.00
2018-05-07T03:24:31.614Z,12.60
2018-05-07T03:26:59.115Z,12.00
2018-05-07T03:29:28.106Z,11.90
2018-05-07T03:31:55.616Z,12.10
2018-05-07T03:34:23.119Z,12.80
2018-05-07T03:36:52.129Z,12.00
2018-05-07T03:39:19.656Z,12.30
2018-05-07T03:41:47.154Z,12.70
2018-05-07T03:44:15.429Z,11.90
2018-05-07T03:46:42.922Z,11.90
2018-05-07T03:51:40.030Z,11.80
2018-05-07T03:54:08.300Z,11.80
2018-05-07T03:56:36.926Z,11.70
2018-05-07T03:59:04.424Z,12.20
2018-05-07T04:01:31.930Z,11.50
2018-05-07T04:03:59.426Z,11.80
2018-05-07T04:06:26.928Z,11.70
2018-05-07T04:08:55.194Z,11.70
2018-05-07T04:11:23.475Z,11.70
2018-05-07T04:13:51.754Z,11.70
2018-05-07T04:16:31.626Z,11.50
2018-05-07T04:19:10.903Z,11.00
2018-05-07T04:21:38.402Z,12.20
2018-05-07T04:24:06.666Z,11.90
2018-05-07T04:26:34.935Z,11.90
2018-05-07T04:29:03.185Z,11.90
2018-05-07T04:31:30.711Z,12.00
2018-05-07T04:33:58.620Z,12.00
2018-05-07T04:36:26.125Z,12.80
2018-05-07T04:38:53.632Z,12.50
2018-05-07T04:41:21.128Z,12.30
2018-05-07T04:43:49.396Z,12.20
2018-05-07T04:46:17.648Z,12.30
2018-05-07T04:48:45.154Z,12.30
2018-05-07T04:51:13.440Z,12.30
2018-05-07T04:53:40.937Z,12.20
2018-05-07T04:56:08.448Z,12.70
2018-05-07T04:58:35.941Z,12.60
2018-05-07T05:01:04.208Z,12.50
2018-05-07T05:03:31.700Z,11.90
2018-05-07T05:05:59.188Z,11.70
2018-05-07T05:08:27.432Z,12.70
2018-05-07T05:10:54.922Z,12.50
2018-05-07T05:13:23.206Z,12.70
2018-05-07T05:15:50.699Z,12.70
2018-05-07T05:18:18.179Z,13.80
2018-05-07T05:20:45.702Z,12.80
2018-05-07T05:23:13.180Z,13.40
2018-05-07T05:25:41.083Z,11.30
2018-05-07T05:28:08.977Z,13.30
2018-05-07T05:30:36.485Z,14.00
2018-05-07T05:33:03.999Z,11.90
2018-05-07T05:35:31.880Z,13.10
2018-05-07T05:37:59.388Z,12.60
2018-05-07T05:40:28.389Z,13.20
2018-05-07T05:42:55.889Z,14.10
2018-05-07T05:45:24.544Z,13.30
2018-05-07T05:47:52.807Z,13.40
2018-05-07T05:50:20.387Z,13.50
2018-05-07T05:52:48.221Z,13.50
2018-05-07T05:55:15.729Z,13.70
2018-05-07T05:57:43.221Z,13.30
2018-05-07T06:00:10.734Z,14.00
2018-05-07T06:02:38.985Z,13.80
2018-05-07T06:05:07.248Z,14.00
2018-05-07T06:07:34.756Z,14.10
2018-05-07T06:10:02.256Z,14.00
2018-05-07T06:12:29.765Z,15.00
2018-05-07T06:14:57.431Z,14.40
2018-05-07T06:17:25.205Z,14.90
2018-05-07T06:19:53.074Z,14.50
2018-05-07T06:22:20.581Z,15.60
2018-05-07T06:24:48.132Z,14.90
2018-05-07T06:27:15.635Z,15.50
2018-05-07T06:29:43.159Z,15.40
2018-05-07T06:32:11.050Z,15.60
2018-05-07T06:34:38.962Z,15.50
2018-05-07T06:37:06.445Z,15.70
2018-05-07T06:39:33.958Z,15.90
2018-05-07T06:42:01.442Z,16.10
2018-05-07T06:44:28.949Z,16.20
2018-05-07T06:46:57.216Z,16.20
2018-05-07T06:49:25.508Z,16.50
2018-05-07T06:51:53.417Z,16.60
2018-05-07T06:54:20.908Z,16.50
2018-05-07T06:56:48.416Z,17.00
2018-05-07T06:59:15.904Z,18.50
2018-05-07T07:01:43.785Z,17.00
2018-05-07T07:04:11.290Z,16.60
2018-05-07T07:06:38.785Z,18.00
2018-05-07T07:09:06.288Z,16.30
2018-05-07T07:11:34.547Z,16.50
2018-05-07T07:14:02.046Z,16.00
2018-05-07T07:16:29.550Z,16.40
2018-05-07T07:18:57.071Z,16.30
2018-05-07T07:21:24.571Z,17.10
2018-05-07T07:23:52.072Z,16.40
2018-05-07T07:26:19.573Z,16.40
2018-05-07T07:28:47.062Z,16.30
2018-05-07T07:31:14.571Z,16.50
2018-05-07T07:33:42.088Z,16.80
2018-05-07T07:36:09.680Z,16.80
2018-05-07T07:38:37.171Z,16.20
2018-05-07T07:41:04.675Z,15.70
2018-05-07T07:43:32.938Z,16.80
2018-05-07T07:46:01.205Z,17.00
2018-05-07T07:48:28.712Z,17.00
2018-05-07T07:50:56.193Z,17.30
2018-05-07T07:53:23.706Z,18.00
2018-05-07T07:55:51.989Z,18.20
2018-05-07T07:58:19.503Z,18.60
2018-05-07T08:00:46.993Z,19.30
2018-05-07T08:03:15.242Z,19.10
2018-05-07T08:05:42.751Z,18.90
2018-05-07T08:08:10.239Z,18.70
2018-05-07T08:10:37.759Z,20.10
2018-05-07T08:13:05.252Z,19.10
2018-05-07T08:15:32.772Z,20.10
2018-05-07T08:18:00.258Z,20.10
2018-05-07T08:20:27.783Z,20.80
2018-05-07T08:22:56.056Z,20.20
2018-05-07T08:25:24.322Z,20.40
2018-05-07T08:27:52.598Z,20.50
2018-05-07T08:30:20.893Z,20.60
2018-05-07T08:32:48.763Z,20.60
2018-05-07T08:35:16.258Z,21.50
2018-05-07T08:37:43.770Z,20.80
2018-05-07T08:40:12.021Z,21.10
2018-05-07T08:42:39.914Z,21.30
2018-05-07T08:45:08.168Z,21.40
2018-05-07T08:47:35.687Z,20.80
2018-05-07T08:50:03.184Z,21.40
2018-05-07T08:52:30.675Z,20.40
2018-05-07T08:54:58.960Z,21.60
2018-05-07T08:57:26.452Z,22.10
2018-05-07T08:59:53.955Z,21.90
2018-05-07T09:02:22.219Z,21.70
2018-05-07T09:04:49.718Z,22.10
2018-05-07T09:07:17.209Z,21.50
2018-05-07T09:09:44.725Z,22.40
2018-05-07T09:12:12.223Z,21.20
2018-05-07T09:14:39.713Z,21.90
2018-05-07T09:17:08.724Z,22.40
2018-05-07T09:19:36.986Z,22.40
2018-05-07T09:22:04.500Z,22.40
2018-05-07T09:24:32.394Z,21.30
2018-05-07T09:26:59.902Z,22.50
2018-05-07T09:29:27.390Z,22.10
2018-05-07T09:31:54.902Z,22.60
2018-05-07T09:34:22.784Z,24.00
2018-05-07T09:36:50.660Z,23.00
2018-05-07T09:39:18.163Z,22.30
2018-05-07T09:41:45.652Z,21.90
2018-05-07T09:44:13.563Z,22.40
2018-05-07T09:46:41.056Z,22.80
2018-05-07T09:49:08.568Z,22.50
2018-05-07T09:51:36.054Z,24.00
2018-05-07T09:54:04.308Z,23.40
2018-05-07T09:56:31.815Z,23.70
2018-05-07T09:58:59.309Z,23.70
2018-05-07T10:01:26.813Z,23.60
2018-05-07T10:03:54.311Z,23.40
2018-05-07T10:06:22.590Z,23.60
2018-05-07T10:08:50.839Z,23.70
2018-05-07T10:11:18.352Z,24.20
2018-05-07T10:13:45.844Z,23.70
2018-05-07T10:16:13.358Z,25.70
2018-05-07T10:18:40.851Z,24.70
2018-05-07T10:21:08.340Z,23.50
2018-05-07T10:23:35.906Z,23.50
2018-05-07T10:26:03.375Z,22.90
2018-05-07T10:28:31.640Z,24.10
2018-05-07T10:30:59.896Z,23.90
2018-05-07T10:33:27.385Z,24.30
2018-05-07T10:35:55.274Z,24.10
2018-05-07T10:38:22.783Z,23.60
2018-05-07T10:40:50.279Z,22.50
2018-05-07T10:43:17.784Z,23.10
2018-05-07T10:45:45.305Z,23.20
2018-05-07T10:48:12.809Z,23.60
2018-05-07T10:50:40.323Z,23.70
2018-05-07T10:53:07.827Z,23.60
2018-05-07T10:55:35.338Z,23.10
2018-05-07T10:58:02.835Z,24.40
2018-05-07T11:00:31.176Z,24.40
2018-05-07T11:02:58.663Z,23.80
2018-05-07T11:05:26.157Z,24.60
2018-05-07T11:07:54.426Z,24.90
2018-05-07T11:10:21.913Z,25.30
2018-05-07T11:12:49.435Z,24.40
2018-05-07T11:15:16.946Z,25.80
2018-05-07T11:17:44.466Z,25.10
2018-05-07T11:20:11.960Z,25.20
2018-05-07T11:22:39.522Z,25.60
2018-05-07T11:25:07.026Z,25.10
2018-05-07T11:27:34.546Z,25.50
2018-05-07T11:30:02.039Z,24.90
2018-05-07T11:32:29.530Z,26.20
2018-05-07T11:34:57.821Z,25.80
2018-05-07T11:37:25.323Z,25.10
2018-05-07T11:39:52.827Z,26.20
2018-05-07T11:42:21.114Z,26.30
2018-05-07T11:44:48.622Z,26.10
2018-05-07T11:47:16.118Z,25.70
2018-05-07T11:49:44.386Z,26.00
2018-05-07T11:52:12.642Z,25.60
2018-05-07T11:54:40.154Z,24.90
2018-05-07T11:57:07.646Z,26.40
2018-05-07T11:59:35.146Z,25.50
2018-05-07T12:02:03.414Z,25.80
2018-05-07T12:04:32.407Z,25.50
2018-05-07T12:06:59.906Z,26.10
2018-05-07T12:09:27.398Z,23.20
2018-05-07T12:11:54.916Z,26.40
2018-05-07T12:14:22.395Z,25.90
2018-05-07T12:16:49.905Z,25.50
2018-05-07T12:19:18.172Z,25.70
2018-05-07T12:21:45.656Z,25.40
2018-05-07T12:24:13.555Z,25.10
2018-05-07T12:26:41.053Z,25.90
2018-05-07T12:29:08.655Z,25.30
2018-05-07T12:31:36.279Z,25.10
2018-05-07T12:34:04.447Z,24.80
2018-05-07T12:36:33.441Z,24.50
2018-05-07T12:39:01.358Z,23.90
2018-05-07T12:41:28.847Z,24.20
2018-05-07T12:43:56.345Z,22.40
2018-05-07T12:46:24.617Z,23.60
2018-05-07T12:48:52.866Z,23.40
2018-05-07T12:51:20.381Z,22.60
2018-05-07T12:53:47.887Z,20.40
2018-05-07T12:56:15.794Z,23.90
2018-05-07T12:58:43.920Z,23.00
2018-05-07T13:01:11.399Z,23.50
2018-05-07T13:03:38.906Z,23.60
2018-05-07T13:06:07.170Z,23.40
2018-05-07T13:08:34.683Z,20.40
2018-05-07T13:11:02.180Z,22.60
2018-05-07T13:13:29.704Z,22.00
2018-05-07T13:15:57.594Z,22.70
2018-05-07T13:18:25.858Z,22.50
2018-05-07T13:20:53.744Z,22.50
2018-05-07T13:23:22.129Z,22.50
2018-05-07T13:25:49.632Z,22.50
2018-05-07T13:28:17.160Z,22.30
2018-05-07T13:30:44.672Z,21.80
2018-05-07T13:33:12.165Z,22.70
2018-05-07T13:35:39.676Z,22.20
2018-05-07T13:38:07.172Z,21.60
2018-05-07T13:40:35.459Z,22.40
2018-05-07T13:43:02.946Z,21.90
2018-05-07T13:45:30.453Z,22.80
2018-05-07T13:47:58.724Z,22.40
2018-05-07T13:50:26.242Z,21.40
2018-05-07T13:52:53.742Z,20.90
2018-05-07T13:55:21.236Z,22.60
2018-05-07T13:57:48.765Z,22.30
2018-05-07T14:00:16.654Z,22.60
2018-05-07T14:02:44.233Z,22.40
2018-05-07T14:05:12.427Z,22.50
2018-05-07T14:07:39.926Z,23.00
2018-05-07T14:10:08.199Z,22.50
2018-05-07T14:12:36.114Z,22.50
2018-05-07T14:15:03.610Z,22.80
2018-05-07T14:17:32.616Z,22.70
2018-05-07T14:20:00.122Z,21.80
2018-05-07T14:22:27.605Z,23.80
2018-05-07T14:24:55.108Z,23.20
2018-05-07T14:27:23.375Z,22.90
2018-05-07T14:29:51.634Z,22.90
2018-05-07T14:32:19.152Z,23.40
2018-05-07T14:34:46.643Z,22.60
2018-05-07T14:37:14.542Z,22.10
2018-05-07T14:39:42.808Z,22.90
2018-05-07T14:42:10.706Z,22.60
2018-05-07T14:44:38.204Z,22.30
2018-05-07T14:47:05.712Z,22.60
2018-05-07T14:49:33.229Z,24.60
2018-05-07T14:52:00.732Z,23.40
2018-05-07T14:54:28.231Z,22.30
2018-05-07T14:56:56.151Z,22.60
2018-05-07T14:59:24.137Z,23.20
2018-05-07T15:01:51.638Z,23.90
2018-05-07T15:04:19.144Z,23.00
2018-05-07T15:06:47.410Z,23.50
2018-05-07T15:09:15.402Z,23.70
2018-05-07T15:11:43.318Z,23.90
2018-05-07T15:14:22.704Z,23.50
2018-05-07T15:16:50.613Z,23.30
2018-05-07T15:19:18.881Z,23.60
2018-05-07T15:21:46.792Z,23.60
2018-05-07T15:24:15.058Z,23.70
2018-05-07T15:26:42.660Z,24.70
2018-05-07T15:29:10.287Z,23.10
2018-05-07T15:31:38.514Z,23.60
2018-05-07T15:34:06.024Z,23.80
2018-05-07T15:36:34.326Z,23.50
2018-05-07T15:39:01.830Z,24.30
2018-05-07T15:41:29.341Z,23.60
2018-05-07T15:43:56.891Z,22.70
2018-05-07T15:46:24.461Z,22.80
2018-05-07T15:48:51.996Z,23.30
2018-05-07T15:51:20.271Z,23.00
2018-05-07T15:53:48.606Z,23.10
2018-05-07T15:56:16.044Z,23.80
2018-05-07T15:58:43.541Z,22.80
2018-05-07T16:01:11.461Z,23.10
2018-05-07T16:03:39.361Z,23.10
2018-05-07T16:06:06.928Z,23.10
2018-05-07T16:08:34.406Z,23.10
2018-05-07T16:11:01.920Z,22.50
2018-05-07T16:13:29.827Z,22.20
2018-05-07T16:15:57.338Z,22.20
2018-05-07T16:18:25.633Z,22.70
2018-05-07T16:20:53.154Z,23.40
2018-05-07T16:23:21.765Z,22.50
2018-05-07T16:25:48.958Z,23.40
2018-05-07T16:28:16.651Z,22.70
2018-05-07T16:30:44.011Z,22.90
2018-05-07T16:33:12.292Z,22.60
2018-05-07T16:35:40.200Z,22.50
2018-05-07T16:38:07.755Z,22.80
2018-05-07T16:40:35.647Z,22.50
2018-05-07T16:43:03.133Z,22.40
2018-05-07T16:45:31.423Z,22.40
2018-05-07T16:47:58.926Z,22.60
2018-05-07T16:50:26.831Z,22.10
2018-05-07T16:52:55.144Z,22.30
2018-05-07T16:55:23.058Z,22.10
2018-05-07T16:57:50.546Z,22.10
2018-05-07T17:00:18.831Z,22.20
2018-05-07T17:02:47.112Z,22.20
2018-05-07T17:05:14.636Z,21.50
2018-05-07T17:07:42.545Z,22.10
2018-05-07T17:10:10.437Z,22.10
2018-05-07T17:12:37.969Z,22.00
2018-05-07T17:15:05.478Z,21.90
2018-05-07T17:17:32.997Z,22.10
2018-05-07T17:20:00.903Z,21.90
2018-05-07T17:22:29.913Z,21.90
2018-05-07T17:24:57.515Z,21.80
2018-05-07T17:27:25.015Z,20.20
2018-05-07T17:29:53.359Z,21.60
2018-05-07T17:32:21.743Z,21.50
2018-05-07T17:34:49.314Z,21.60
2018-05-07T17:37:16.816Z,20.70
2018-05-07T17:39:45.080Z,21.20
2018-05-07T17:42:14.140Z,21.20
2018-05-07T17:44:53.667Z,21.10
2018-05-07T17:47:33.004Z,21.30
2018-05-07T17:50:00.503Z,20.90
2018-05-07T17:52:28.418Z,20.90
2018-05-07T17:54:55.933Z,20.30
2018-05-07T17:57:25.269Z,20.70
2018-05-07T17:59:53.191Z,20.90
2018-05-07T18:02:20.766Z,20.70
2018-05-07T18:04:49.084Z,20.30
2018-05-07T18:07:17.479Z,20.20
2018-05-07T18:09:45.004Z,20.10
2018-05-07T18:12:13.602Z,19.80
2018-05-07T18:14:41.892Z,19.70
2018-05-07T18:17:10.525Z,19.50
2018-05-07T18:19:38.469Z,19.10
2018-05-07T18:22:06.734Z,19.20
2018-05-07T18:27:03.117Z,18.70
2018-05-07T18:29:32.184Z,18.80
2018-05-07T18:31:59.782Z,18.30
2018-05-07T18:34:28.483Z,18.50
2018-05-07T18:36:57.504Z,18.50
2018-05-07T18:39:25.434Z,18.00
2018-05-07T18:41:53.999Z,18.20
2018-05-07T18:44:21.543Z,18.00
2018-05-07T18:46:49.490Z,16.50
2018-05-07T18:49:17.016Z,17.80
2018-05-07T18:51:45.316Z,17.70
2018-05-07T18:54:13.976Z,17.70
2018-05-07T18:59:11.230Z,18.00
2018-05-07T19:01:38.860Z,17.50
2018-05-07T19:04:08.003Z,17.10
2018-05-07T19:06:36.614Z,16.40
2018-05-07T19:09:04.162Z,17.30
2018-05-07T19:11:32.062Z,17.20
2018-05-07T19:13:59.696Z,17.10
2018-05-07T19:16:27.252Z,17.20
2018-05-07T19:18:55.630Z,16.80
2018-05-07T19:21:25.770Z,16.70
2018-05-07T19:23:53.343Z,16.40
2018-05-07T19:26:21.130Z,17.30
2018-05-07T19:28:50.251Z,15.50
2018-05-07T19:31:18.587Z,16.70
2018-05-07T19:33:47.296Z,16.60
2018-05-07T19:36:16.278Z,15.40
2018-05-07T19:38:43.841Z,16.80
2018-05-07T19:41:11.806Z,16.40
2018-05-07T19:43:39.732Z,16.30
2018-05-07T19:46:08.608Z,16.20
2018-05-07T19:51:05.897Z,15.90
2018-05-07T19:53:35.007Z,15.90
2018-05-07T19:56:02.947Z,15.90
2018-05-07T19:58:32.752Z,15.90
2018-05-07T20:01:01.965Z,15.80
2018-05-07T20:03:30.448Z,15.60
2018-05-07T20:05:59.581Z,15.80
2018-05-07T20:08:29.399Z,15.70
2018-05-07T20:10:57.651Z,15.50
2018-05-07T20:13:26.760Z,15.80
2018-05-07T20:15:54.313Z,15.00
2018-05-07T20:18:22.758Z,15.70
2018-05-07T20:20:51.357Z,15.80
2018-05-07T20:23:18.869Z,15.90
2018-05-07T20:25:46.827Z,15.70
2018-05-07T20:28:15.204Z,15.70
2018-05-07T20:30:43.851Z,15.70
2018-05-07T20:33:12.127Z,15.80
2018-05-07T20:35:40.072Z,15.50
2018-05-07T20:38:08.077Z,15.80
2018-05-07T20:43:05.980Z,15.80
2018-05-07T20:45:33.519Z,16.00
2018-05-07T20:48:02.705Z,15.70
2018-05-07T20:50:30.512Z,15.60
2018-05-07T20:55:27.709Z,15.50
2018-05-07T20:57:55.644Z,15.40
2018-05-07T21:00:23.149Z,15.40
2018-05-07T21:02:51.398Z,15.30
2018-05-07T21:05:18.937Z,15.00
2018-05-07T21:07:47.567Z,15.20
2018-05-07T21:10:15.101Z,15.00
2018-05-07T21:12:42.613Z,14.90
2018-05-07T21:15:10.145Z,15.00
2018-05-07T21:17:38.452Z,14.90
2018-05-07T21:20:06.428Z,14.80
2018-05-07T21:22:34.719Z,14.90
2018-05-07T21:25:02.607Z,15.00
2018-05-07T21:27:30.509Z,14.50
2018-05-07T21:29:58.825Z,14.80
2018-05-07T21:32:26.354Z,14.70
2018-05-07T21:34:54.617Z,14.70
2018-05-07T21:37:22.905Z,14.60
2018-05-07T21:39:51.187Z,14.60
2018-05-07T21:42:19.073Z,14.50
2018-05-07T21:44:46.582Z,14.60
2018-05-07T21:47:15.579Z,14.40
2018-05-07T21:49:43.275Z,14.60
2018-05-07T21:52:11.553Z,14.40
2018-05-07T21:54:39.060Z,14.40
2018-05-07T21:57:06.549Z,14.60
2018-05-07T21:59:34.823Z,14.50
2018-05-07T22:02:02.328Z,14.00
2018-05-07T22:04:29.843Z,14.40
2018-05-07T22:06:58.097Z,14.40
2018-05-07T22:09:25.591Z,13.20
2018-05-07T22:14:21.965Z,14.50
2018-05-07T22:16:50.223Z,14.20
2018-05-07T22:19:17.717Z,12.60
2018-05-07T22:21:45.241Z,14.40
2018-05-07T22:24:12.745Z,14.30
2018-05-07T22:26:40.232Z,16.00
2018-05-07T22:29:07.772Z,14.40
2018-05-07T22:31:35.677Z,14.00
2018-05-07T22:34:03.952Z,13.70
2018-05-07T22:36:31.452Z,13.90
2018-05-07T22:38:59.011Z,13.70
2018-05-07T22:41:27.218Z,13.60
2018-05-07T22:43:54.719Z,13.80
2018-05-07T22:46:22.225Z,14.70
2018-05-07T22:48:50.515Z,13.00
2018-05-07T22:51:18.007Z,14.70
2018-05-07T22:53:45.903Z,13.30
2018-05-07T22:56:13.414Z,13.50
2018-05-07T22:58:40.903Z,13.40
2018-05-07T23:01:08.415Z,13.90
2018-05-07T23:03:35.902Z,13.10
2018-05-07T23:06:04.176Z,13.90
2018-05-07T23:08:32.435Z,14.00
2018-05-07T23:10:59.959Z,14.80
2018-05-07T23:13:28.228Z,14.00
2018-05-07T23:15:55.727Z,14.30
2018-05-07T23:18:23.238Z,13.90
2018-05-07T23:20:50.733Z,13.80
2018-05-07T23:23:19.847Z,14.00
2018-05-07T23:28:16.201Z,13.60
2018-05-07T23:30:44.454Z,14.10
2018-05-07T23:33:12.064Z,14.00
2018-05-07T23:35:39.971Z,13.70
2018-05-07T23:38:07.476Z,14.30
2018-05-07T23:40:36.526Z,14.50
2018-05-07T23:43:04.017Z,13.60
2018-05-07T23:45:32.289Z,15.20
2018-05-07T23:48:00.996Z,14.70
2018-05-07T23:50:28.503Z,15.50
2018-05-07T23:52:55.984Z,14.90
2018-05-07T23:55:23.479Z,13.80
2018-05-07T23:57:50.973Z,14.20
